sensor_id;sensor_type;location;lat;lon;timestamp;P1;durP1;ratioP1;P2;durP2;ratioP2
11042;SDS011;5574;48.786;10.120;2022-08-01T00:00:16;2.65;;;2.45;;
11042;SDS011;5574;48.786;10.120;2022-08-01T00:02:43;3.33;;;2.40;;
11042;SDS011;5574;48.786;10.120;2022-08-01T00:05:10;2.55;;;2.35;;
11042;SDS011;5574;48.786;10.120;2022-08-01T00:07:38;2.17;;;1.98;;
11042;SDS011;5574;48.786;10.120;2022-08-01T00:10:06;2.67;;;2.47;;
11042;SDS011;5574;48.786;10.120;2022-08-01T00:12:34;2.67;;;2.35;;
11042;SDS011;5574;48.786;10.120;2022-08-01T00:15:01;2.58;;;2.38;;
11042;SDS011;5574;48.786;10.120;2022-08-01T00:17:28;2.20;;;2.10;;
11042;SDS011;5574;48.786;10.120;2022-08-01T00:19:55;2.40;;;2.20;;
11042;SDS011;5574;48.786;10.120;2022-08-01T00:22:22;2.60;;;2.38;;
11042;SDS011;5574;48.786;10.120;2022-08-01T00:24:50;2.53;;;2.30;;
11042;SDS011;5574;48.786;10.120;2022-08-01T00:27:16;5.30;;;2.47;;
11042;SDS011;5574;48.786;10.120;2022-08-01T00:29:43;2.53;;;2.33;;
11042;SDS011;5574;48.786;10.120;2022-08-01T00:32:10;2.28;;;2.08;;
11042;SDS011;5574;48.786;10.120;2022-08-01T00:34:36;2.40;;;2.20;;
11042;SDS011;5574;48.786;10.120;2022-08-01T00:37:03;2.30;;;2.10;;
11042;SDS011;5574;48.786;10.120;2022-08-01T00:39:30;2.88;;;1.90;;
11042;SDS011;5574;48.786;10.120;2022-08-01T00:41:59;2.63;;;2.42;;
11042;SDS011;5574;48.786;10.120;2022-08-01T00:44:26;2.63;;;2.40;;
11042;SDS011;5574;48.786;10.120;2022-08-01T00:46:53;2.50;;;2.30;;
11042;SDS011;5574;48.786;10.120;2022-08-01T00:49:19;2.50;;;2.30;;
11042;SDS011;5574;48.786;10.120;2022-08-01T00:51:46;2.58;;;2.38;;
11042;SDS011;5574;48.786;10.120;2022-08-01T00:54:13;2.40;;;2.22;;
11042;SDS011;5574;48.786;10.120;2022-08-01T00:56:40;2.40;;;2.20;;
11042;SDS011;5574;48.786;10.120;2022-08-01T00:59:08;3.20;;;2.47;;
11042;SDS011;5574;48.786;10.120;2022-08-01T01:01:37;2.55;;;2.35;;
11042;SDS011;5574;48.786;10.120;2022-08-01T01:04:04;2.60;;;2.40;;
11042;SDS011;5574;48.786;10.120;2022-08-01T01:06:39;2.40;;;2.20;;
11042;SDS011;5574;48.786;10.120;2022-08-01T01:09:13;1.90;;;1.80;;
11042;SDS011;5574;48.786;10.120;2022-08-01T01:11:49;2.55;;;2.35;;
11042;SDS011;5574;48.786;10.120;2022-08-01T01:14:30;3.08;;;2.08;;
11042;SDS011;5574;48.786;10.120;2022-08-01T01:16:59;3.58;;;1.98;;
11042;SDS011;5574;48.786;10.120;2022-08-01T01:19:30;2.50;;;2.30;;
11042;SDS011;5574;48.786;10.120;2022-08-01T01:22:16;2.10;;;2.00;;
11042;SDS011;5574;48.786;10.120;2022-08-01T01:24:50;2.50;;;2.30;;
11042;SDS011;5574;48.786;10.120;2022-08-01T01:27:45;2.38;;;2.17;;
11042;SDS011;5574;48.786;10.120;2022-08-01T01:30:22;2.38;;;2.22;;
11042;SDS011;5574;48.786;10.120;2022-08-01T01:32:51;2.20;;;2.00;;
11042;SDS011;5574;48.786;10.120;2022-08-01T01:35:19;2.33;;;2.13;;
11042;SDS011;5574;48.786;10.120;2022-08-01T01:37:52;2.40;;;2.20;;
11042;SDS011;5574;48.786;10.120;2022-08-01T01:40:22;3.25;;;2.33;;
11042;SDS011;5574;48.786;10.120;2022-08-01T01:42:49;2.20;;;2.10;;
11042;SDS011;5574;48.786;10.120;2022-08-01T01:45:17;4.50;;;2.70;;
11042;SDS011;5574;48.786;10.120;2022-08-01T01:47:45;2.40;;;2.30;;
11042;SDS011;5574;48.786;10.120;2022-08-01T01:50:13;2.67;;;2.42;;
11042;SDS011;5574;48.786;10.120;2022-08-01T01:52:41;2.83;;;2.40;;
11042;SDS011;5574;48.786;10.120;2022-08-01T01:55:10;3.67;;;2.50;;
11042;SDS011;5574;48.786;10.120;2022-08-01T01:57:39;2.30;;;2.10;;
11042;SDS011;5574;48.786;10.120;2022-08-01T02:00:07;2.47;;;2.28;;
11042;SDS011;5574;48.786;10.120;2022-08-01T02:02:36;2.53;;;2.33;;
11042;SDS011;5574;48.786;10.120;2022-08-01T02:05:06;3.03;;;2.45;;
11042;SDS011;5574;48.786;10.120;2022-08-01T02:07:35;2.35;;;2.15;;
11042;SDS011;5574;48.786;10.120;2022-08-01T02:10:04;2.70;;;2.50;;
11042;SDS011;5574;48.786;10.120;2022-08-01T02:12:33;3.28;;;2.40;;
11042;SDS011;5574;48.786;10.120;2022-08-01T02:15:02;4.25;;;2.42;;
11042;SDS011;5574;48.786;10.120;2022-08-01T02:17:30;2.72;;;2.53;;
11042;SDS011;5574;48.786;10.120;2022-08-01T02:19:57;3.30;;;2.58;;
11042;SDS011;5574;48.786;10.120;2022-08-01T02:22:27;2.30;;;2.10;;
11042;SDS011;5574;48.786;10.120;2022-08-01T02:24:59;2.80;;;2.60;;
11042;SDS011;5574;48.786;10.120;2022-08-01T02:27:28;2.55;;;2.35;;
11042;SDS011;5574;48.786;10.120;2022-08-01T02:30:00;2.67;;;2.47;;
11042;SDS011;5574;48.786;10.120;2022-08-01T02:32:30;3.63;;;2.50;;
11042;SDS011;5574;48.786;10.120;2022-08-01T02:35:00;2.92;;;2.42;;
11042;SDS011;5574;48.786;10.120;2022-08-01T02:37:30;2.67;;;2.47;;
11042;SDS011;5574;48.786;10.120;2022-08-01T02:40:00;2.20;;;2.10;;
11042;SDS011;5574;48.786;10.120;2022-08-01T02:42:27;2.70;;;2.50;;
11042;SDS011;5574;48.786;10.120;2022-08-01T02:44:55;2.90;;;2.40;;
11042;SDS011;5574;48.786;10.120;2022-08-01T02:47:23;2.65;;;2.45;;
11042;SDS011;5574;48.786;10.120;2022-08-01T02:49:53;3.20;;;2.63;;
11042;SDS011;5574;48.786;10.120;2022-08-01T02:52:21;2.50;;;2.30;;
11042;SDS011;5574;48.786;10.120;2022-08-01T02:54:53;2.60;;;2.25;;
11042;SDS011;5574;48.786;10.120;2022-08-01T02:57:21;2.60;;;2.40;;
11042;SDS011;5574;48.786;10.120;2022-08-01T02:59:50;2.72;;;2.50;;
11042;SDS011;5574;48.786;10.120;2022-08-01T03:02:20;3.10;;;2.42;;
11042;SDS011;5574;48.786;10.120;2022-08-01T03:04:49;2.58;;;2.38;;
11042;SDS011;5574;48.786;10.120;2022-08-01T03:07:17;2.72;;;2.42;;
11042;SDS011;5574;48.786;10.120;2022-08-01T03:09:46;2.70;;;2.50;;
11042;SDS011;5574;48.786;10.120;2022-08-01T03:12:17;2.45;;;2.25;;
11042;SDS011;5574;48.786;10.120;2022-08-01T03:14:47;2.70;;;2.50;;
11042;SDS011;5574;48.786;10.120;2022-08-01T03:17:17;2.33;;;2.22;;
11042;SDS011;5574;48.786;10.120;2022-08-01T03:19:46;2.78;;;2.50;;
11042;SDS011;5574;48.786;10.120;2022-08-01T03:22:15;3.10;;;2.80;;
11042;SDS011;5574;48.786;10.120;2022-08-01T03:24:44;2.85;;;2.60;;
11042;SDS011;5574;48.786;10.120;2022-08-01T03:27:14;2.88;;;2.65;;
11042;SDS011;5574;48.786;10.120;2022-08-01T03:29:43;3.65;;;3.35;;
11042;SDS011;5574;48.786;10.120;2022-08-01T03:32:11;2.92;;;2.70;;
11042;SDS011;5574;48.786;10.120;2022-08-01T03:34:39;2.65;;;2.45;;
11042;SDS011;5574;48.786;10.120;2022-08-01T03:37:07;2.63;;;2.42;;
11042;SDS011;5574;48.786;10.120;2022-08-01T03:39:42;2.63;;;2.42;;
11042;SDS011;5574;48.786;10.120;2022-08-01T03:42:14;2.50;;;2.30;;
11042;SDS011;5574;48.786;10.120;2022-08-01T03:44:46;3.33;;;3.05;;
11042;SDS011;5574;48.786;10.120;2022-08-01T03:47:17;2.80;;;2.60;;
11042;SDS011;5574;48.786;10.120;2022-08-01T03:49:47;2.92;;;2.53;;
11042;SDS011;5574;48.786;10.120;2022-08-01T03:52:14;2.78;;;2.55;;
11042;SDS011;5574;48.786;10.120;2022-08-01T03:54:43;3.03;;;2.83;;
11042;SDS011;5574;48.786;10.120;2022-08-01T03:57:13;3.97;;;2.75;;
11042;SDS011;5574;48.786;10.120;2022-08-01T03:59:41;3.10;;;2.80;;
11042;SDS011;5574;48.786;10.120;2022-08-01T04:02:11;3.80;;;2.67;;
11042;SDS011;5574;48.786;10.120;2022-08-01T04:04:39;3.25;;;2.95;;
11042;SDS011;5574;48.786;10.120;2022-08-01T04:07:20;3.15;;;2.78;;
11042;SDS011;5574;48.786;10.120;2022-08-01T04:09:47;2.38;;;2.28;;
11042;SDS011;5574;48.786;10.120;2022-08-01T04:12:14;3.63;;;2.90;;
11042;SDS011;5574;48.786;10.120;2022-08-01T04:14:41;3.42;;;2.70;;
11042;SDS011;5574;48.786;10.120;2022-08-01T04:17:08;3.03;;;2.72;;
11042;SDS011;5574;48.786;10.120;2022-08-01T04:19:36;5.35;;;2.70;;
11042;SDS011;5574;48.786;10.120;2022-08-01T04:22:03;3.63;;;2.60;;
11042;SDS011;5574;48.786;10.120;2022-08-01T04:24:30;3.10;;;2.78;;
11042;SDS011;5574;48.786;10.120;2022-08-01T04:26:58;3.30;;;3.00;;
11042;SDS011;5574;48.786;10.120;2022-08-01T04:29:27;4.55;;;4.15;;
11042;SDS011;5574;48.786;10.120;2022-08-01T04:31:55;4.90;;;3.00;;
11042;SDS011;5574;48.786;10.120;2022-08-01T04:34:25;2.92;;;2.72;;
11042;SDS011;5574;48.786;10.120;2022-08-01T04:36:56;4.28;;;2.60;;
11042;SDS011;5574;48.786;10.120;2022-08-01T04:39:23;2.83;;;2.63;;
11042;SDS011;5574;48.786;10.120;2022-08-01T04:41:53;2.72;;;2.53;;
11042;SDS011;5574;48.786;10.120;2022-08-01T04:44:22;2.75;;;2.55;;
11042;SDS011;5574;48.786;10.120;2022-08-01T04:46:49;3.78;;;2.60;;
11042;SDS011;5574;48.786;10.120;2022-08-01T04:49:19;2.58;;;2.38;;
11042;SDS011;5574;48.786;10.120;2022-08-01T04:51:50;2.80;;;2.60;;
11042;SDS011;5574;48.786;10.120;2022-08-01T04:54:18;3.53;;;2.45;;
11042;SDS011;5574;48.786;10.120;2022-08-01T04:56:46;4.32;;;2.53;;
11042;SDS011;5574;48.786;10.120;2022-08-01T04:59:13;4.32;;;2.83;;
11042;SDS011;5574;48.786;10.120;2022-08-01T05:01:57;4.38;;;2.90;;
11042;SDS011;5574;48.786;10.120;2022-08-01T05:04:24;2.67;;;2.47;;
11042;SDS011;5574;48.786;10.120;2022-08-01T05:06:50;3.35;;;2.47;;
11042;SDS011;5574;48.786;10.120;2022-08-01T05:09:18;3.97;;;2.75;;
11042;SDS011;5574;48.786;10.120;2022-08-01T05:11:45;2.97;;;2.70;;
11042;SDS011;5574;48.786;10.120;2022-08-01T05:14:12;2.67;;;2.25;;
11042;SDS011;5574;48.786;10.120;2022-08-01T05:16:38;3.17;;;2.53;;
11042;SDS011;5574;48.786;10.120;2022-08-01T05:19:06;3.47;;;2.50;;
11042;SDS011;5574;48.786;10.120;2022-08-01T05:21:33;3.88;;;2.53;;
11042;SDS011;5574;48.786;10.120;2022-08-01T05:24:01;2.80;;;2.60;;
11042;SDS011;5574;48.786;10.120;2022-08-01T05:26:29;2.92;;;2.47;;
11042;SDS011;5574;48.786;10.120;2022-08-01T05:28:55;2.75;;;2.55;;
11042;SDS011;5574;48.786;10.120;2022-08-01T05:31:22;2.63;;;2.42;;
11042;SDS011;5574;48.786;10.120;2022-08-01T05:33:49;4.18;;;2.30;;
11042;SDS011;5574;48.786;10.120;2022-08-01T05:36:15;2.38;;;2.17;;
11042;SDS011;5574;48.786;10.120;2022-08-01T05:38:42;2.70;;;2.50;;
11042;SDS011;5574;48.786;10.120;2022-08-01T05:41:09;3.50;;;2.28;;
11042;SDS011;5574;48.786;10.120;2022-08-01T05:43:37;2.63;;;2.42;;
11042;SDS011;5574;48.786;10.120;2022-08-01T05:46:04;2.72;;;2.53;;
11042;SDS011;5574;48.786;10.120;2022-08-01T05:48:31;2.88;;;2.60;;
11042;SDS011;5574;48.786;10.120;2022-08-01T05:50:57;2.92;;;2.60;;
11042;SDS011;5574;48.786;10.120;2022-08-01T05:53:24;2.80;;;2.60;;
11042;SDS011;5574;48.786;10.120;2022-08-01T05:55:51;2.67;;;2.40;;
11042;SDS011;5574;48.786;10.120;2022-08-01T05:58:18;2.80;;;2.60;;
11042;SDS011;5574;48.786;10.120;2022-08-01T06:00:46;2.53;;;2.33;;
11042;SDS011;5574;48.786;10.120;2022-08-01T06:03:12;3.47;;;2.13;;
11042;SDS011;5574;48.786;10.120;2022-08-01T06:05:40;3.35;;;2.40;;
11042;SDS011;5574;48.786;10.120;2022-08-01T06:08:06;2.58;;;2.35;;
11042;SDS011;5574;48.786;10.120;2022-08-01T06:10:33;3.53;;;2.50;;
11042;SDS011;5574;48.786;10.120;2022-08-01T06:13:00;2.50;;;2.30;;
11042;SDS011;5574;48.786;10.120;2022-08-01T06:15:27;2.50;;;2.30;;
11042;SDS011;5574;48.786;10.120;2022-08-01T06:17:55;2.83;;;2.25;;
11042;SDS011;5574;48.786;10.120;2022-08-01T06:20:22;5.63;;;2.45;;
11042;SDS011;5574;48.786;10.120;2022-08-01T06:22:49;2.05;;;1.90;;
11042;SDS011;5574;48.786;10.120;2022-08-01T06:25:16;2.55;;;2.20;;
11042;SDS011;5574;48.786;10.120;2022-08-01T06:27:43;2.15;;;1.90;;
11042;SDS011;5574;48.786;10.120;2022-08-01T06:30:10;2.25;;;2.10;;
11042;SDS011;5574;48.786;10.120;2022-08-01T06:32:37;2.95;;;2.25;;
11042;SDS011;5574;48.786;10.120;2022-08-01T06:35:06;2.38;;;2.15;;
11042;SDS011;5574;48.786;10.120;2022-08-01T06:37:33;1.92;;;1.77;;
11042;SDS011;5574;48.786;10.120;2022-08-01T06:40:00;2.20;;;2.00;;
11042;SDS011;5574;48.786;10.120;2022-08-01T06:42:27;1.90;;;1.80;;
11042;SDS011;5574;48.786;10.120;2022-08-01T06:44:53;1.75;;;1.65;;
11042;SDS011;5574;48.786;10.120;2022-08-01T06:47:20;1.90;;;1.80;;
11042;SDS011;5574;48.786;10.120;2022-08-01T06:49:47;1.92;;;1.83;;
11042;SDS011;5574;48.786;10.120;2022-08-01T06:52:15;3.55;;;2.00;;
11042;SDS011;5574;48.786;10.120;2022-08-01T06:54:42;2.10;;;1.90;;
11042;SDS011;5574;48.786;10.120;2022-08-01T06:57:08;1.95;;;1.85;;
11042;SDS011;5574;48.786;10.120;2022-08-01T06:59:35;2.30;;;2.10;;
11042;SDS011;5574;48.786;10.120;2022-08-01T07:02:01;3.58;;;2.15;;
11042;SDS011;5574;48.786;10.120;2022-08-01T07:04:28;2.30;;;2.10;;
11042;SDS011;5574;48.786;10.120;2022-08-01T07:06:55;2.63;;;1.73;;
11042;SDS011;5574;48.786;10.120;2022-08-01T07:09:23;2.40;;;1.80;;
11042;SDS011;5574;48.786;10.120;2022-08-01T07:11:50;2.03;;;1.70;;
11042;SDS011;5574;48.786;10.120;2022-08-01T07:14:17;2.20;;;1.70;;
11042;SDS011;5574;48.786;10.120;2022-08-01T07:16:44;2.25;;;2.05;;
11042;SDS011;5574;48.786;10.120;2022-08-01T07:19:10;1.60;;;1.50;;
11042;SDS011;5574;48.786;10.120;2022-08-01T07:21:38;1.90;;;1.77;;
11042;SDS011;5574;48.786;10.120;2022-08-01T07:24:05;1.80;;;1.70;;
11042;SDS011;5574;48.786;10.120;2022-08-01T07:26:33;2.00;;;1.85;;
11042;SDS011;5574;48.786;10.120;2022-08-01T07:29:00;1.70;;;1.60;;
11042;SDS011;5574;48.786;10.120;2022-08-01T07:31:27;2.00;;;1.90;;
11042;SDS011;5574;48.786;10.120;2022-08-01T07:33:54;2.35;;;2.00;;
11042;SDS011;5574;48.786;10.120;2022-08-01T07:36:21;1.70;;;1.60;;
11042;SDS011;5574;48.786;10.120;2022-08-01T07:38:47;1.95;;;1.40;;
11042;SDS011;5574;48.786;10.120;2022-08-01T07:41:14;1.95;;;1.73;;
11042;SDS011;5574;48.786;10.120;2022-08-01T07:43:42;4.90;;;1.70;;
11042;SDS011;5574;48.786;10.120;2022-08-01T07:46:09;1.75;;;1.48;;
11042;SDS011;5574;48.786;10.120;2022-08-01T07:48:35;1.40;;;1.30;;
11042;SDS011;5574;48.786;10.120;2022-08-01T07:51:02;1.63;;;1.40;;
11042;SDS011;5574;48.786;10.120;2022-08-01T07:53:29;1.70;;;1.50;;
11042;SDS011;5574;48.786;10.120;2022-08-01T07:55:55;1.60;;;1.50;;
11042;SDS011;5574;48.786;10.120;2022-08-01T07:58:22;1.85;;;1.65;;
11042;SDS011;5574;48.786;10.120;2022-08-01T08:00:50;1.27;;;1.27;;
11042;SDS011;5574;48.786;10.120;2022-08-01T08:03:17;3.35;;;1.48;;
11042;SDS011;5574;48.786;10.120;2022-08-01T08:05:43;1.95;;;1.52;;
11042;SDS011;5574;48.786;10.120;2022-08-01T08:08:10;1.92;;;1.48;;
11042;SDS011;5574;48.786;10.120;2022-08-01T08:10:39;1.73;;;1.63;;
11042;SDS011;5574;48.786;10.120;2022-08-01T08:13:05;2.80;;;2.03;;
11042;SDS011;5574;48.786;10.120;2022-08-01T08:15:32;2.05;;;1.85;;
11042;SDS011;5574;48.786;10.120;2022-08-01T08:18:00;2.05;;;1.95;;
11042;SDS011;5574;48.786;10.120;2022-08-01T08:20:28;2.33;;;2.00;;
11042;SDS011;5574;48.786;10.120;2022-08-01T08:22:55;5.75;;;2.22;;
11042;SDS011;5574;48.786;10.120;2022-08-01T08:25:23;2.10;;;1.90;;
11042;SDS011;5574;48.786;10.120;2022-08-01T08:27:50;2.15;;;2.05;;
11042;SDS011;5574;48.786;10.120;2022-08-01T08:30:17;2.00;;;1.77;;
11042;SDS011;5574;48.786;10.120;2022-08-01T08:32:44;2.40;;;2.20;;
11042;SDS011;5574;48.786;10.120;2022-08-01T08:35:12;2.05;;;1.95;;
11042;SDS011;5574;48.786;10.120;2022-08-01T08:37:38;3.20;;;2.00;;
11042;SDS011;5574;48.786;10.120;2022-08-01T08:40:05;2.28;;;2.05;;
11042;SDS011;5574;48.786;10.120;2022-08-01T08:42:33;2.38;;;2.17;;
11042;SDS011;5574;48.786;10.120;2022-08-01T08:45:00;3.38;;;2.30;;
11042;SDS011;5574;48.786;10.120;2022-08-01T08:47:27;2.00;;;1.90;;
11042;SDS011;5574;48.786;10.120;2022-08-01T08:49:57;1.92;;;1.83;;
11042;SDS011;5574;48.786;10.120;2022-08-01T08:52:26;2.05;;;1.92;;
11042;SDS011;5574;48.786;10.120;2022-08-01T08:54:53;2.03;;;1.92;;
11042;SDS011;5574;48.786;10.120;2022-08-01T08:57:21;2.20;;;2.10;;
11042;SDS011;5574;48.786;10.120;2022-08-01T08:59:48;2.55;;;2.10;;
11042;SDS011;5574;48.786;10.120;2022-08-01T09:02:19;2.22;;;2.10;;
11042;SDS011;5574;48.786;10.120;2022-08-01T09:04:46;3.83;;;1.92;;
11042;SDS011;5574;48.786;10.120;2022-08-01T09:07:13;2.83;;;2.30;;
11042;SDS011;5574;48.786;10.120;2022-08-01T09:09:41;3.70;;;2.20;;
11042;SDS011;5574;48.786;10.120;2022-08-01T09:12:08;2.78;;;2.20;;
11042;SDS011;5574;48.786;10.120;2022-08-01T09:14:45;2.20;;;2.00;;
11042;SDS011;5574;48.786;10.120;2022-08-01T09:17:12;2.00;;;1.90;;
11042;SDS011;5574;48.786;10.120;2022-08-01T09:19:40;4.15;;;2.20;;
11042;SDS011;5574;48.786;10.120;2022-08-01T09:22:07;2.55;;;1.90;;
11042;SDS011;5574;48.786;10.120;2022-08-01T09:24:36;2.40;;;2.20;;
11042;SDS011;5574;48.786;10.120;2022-08-01T09:27:16;2.38;;;2.17;;
11042;SDS011;5574;48.786;10.120;2022-08-01T09:29:43;4.25;;;2.13;;
11042;SDS011;5574;48.786;10.120;2022-08-01T09:32:10;4.85;;;2.47;;
11042;SDS011;5574;48.786;10.120;2022-08-01T09:34:37;2.60;;;1.92;;
11042;SDS011;5574;48.786;10.120;2022-08-01T09:37:03;3.10;;;2.03;;
11042;SDS011;5574;48.786;10.120;2022-08-01T09:39:31;2.25;;;2.03;;
11042;SDS011;5574;48.786;10.120;2022-08-01T09:42:02;2.30;;;2.10;;
11042;SDS011;5574;48.786;10.120;2022-08-01T09:44:46;2.40;;;2.08;;
11042;SDS011;5574;48.786;10.120;2022-08-01T09:47:13;2.08;;;1.98;;
11042;SDS011;5574;48.786;10.120;2022-08-01T09:49:41;2.10;;;1.90;;
11042;SDS011;5574;48.786;10.120;2022-08-01T09:52:09;3.80;;;2.47;;
11042;SDS011;5574;48.786;10.120;2022-08-01T09:54:38;2.50;;;2.22;;
11042;SDS011;5574;48.786;10.120;2022-08-01T09:57:09;3.03;;;2.00;;
11042;SDS011;5574;48.786;10.120;2022-08-01T09:59:39;2.33;;;2.13;;
11042;SDS011;5574;48.786;10.120;2022-08-01T10:02:08;3.20;;;2.13;;
11042;SDS011;5574;48.786;10.120;2022-08-01T10:04:45;3.50;;;2.05;;
11042;SDS011;5574;48.786;10.120;2022-08-01T10:07:12;2.20;;;2.10;;
11042;SDS011;5574;48.786;10.120;2022-08-01T10:09:40;2.17;;;2.05;;
11042;SDS011;5574;48.786;10.120;2022-08-01T10:12:08;3.58;;;2.28;;
11042;SDS011;5574;48.786;10.120;2022-08-01T10:14:35;2.58;;;1.90;;
11042;SDS011;5574;48.786;10.120;2022-08-01T10:17:06;4.03;;;3.58;;
11042;SDS011;5574;48.786;10.120;2022-08-01T10:19:37;2.92;;;2.10;;
11042;SDS011;5574;48.786;10.120;2022-08-01T10:22:07;2.10;;;2.00;;
11042;SDS011;5574;48.786;10.120;2022-08-01T10:24:36;2.13;;;1.90;;
11042;SDS011;5574;48.786;10.120;2022-08-01T10:27:04;2.13;;;2.03;;
11042;SDS011;5574;48.786;10.120;2022-08-01T10:29:35;2.60;;;1.83;;
11042;SDS011;5574;48.786;10.120;2022-08-01T10:32:07;3.03;;;1.90;;
11042;SDS011;5574;48.786;10.120;2022-08-01T10:34:34;3.70;;;2.47;;
11042;SDS011;5574;48.786;10.120;2022-08-01T10:37:02;2.45;;;2.20;;
11042;SDS011;5574;48.786;10.120;2022-08-01T10:39:30;1.95;;;1.83;;
11042;SDS011;5574;48.786;10.120;2022-08-01T10:41:57;3.65;;;2.05;;
11042;SDS011;5574;48.786;10.120;2022-08-01T10:44:25;1.80;;;1.70;;
11042;SDS011;5574;48.786;10.120;2022-08-01T10:46:54;2.05;;;1.90;;
11042;SDS011;5574;48.786;10.120;2022-08-01T10:49:31;2.95;;;2.00;;
11042;SDS011;5574;48.786;10.120;2022-08-01T10:52:02;2.42;;;1.75;;
11042;SDS011;5574;48.786;10.120;2022-08-01T10:54:29;2.10;;;2.00;;
11042;SDS011;5574;48.786;10.120;2022-08-01T10:57:05;1.85;;;1.60;;
11042;SDS011;5574;48.786;10.120;2022-08-01T10:59:32;2.30;;;2.10;;
11042;SDS011;5574;48.786;10.120;2022-08-01T11:02:00;1.88;;;1.77;;
11042;SDS011;5574;48.786;10.120;2022-08-01T11:04:33;2.08;;;1.90;;
11042;SDS011;5574;48.786;10.120;2022-08-01T11:07:08;2.22;;;2.13;;
11042;SDS011;5574;48.786;10.120;2022-08-01T11:09:42;2.22;;;2.03;;
11042;SDS011;5574;48.786;10.120;2022-08-01T11:12:11;3.35;;;2.40;;
11042;SDS011;5574;48.786;10.120;2022-08-01T11:17:49;2.55;;;2.33;;
11042;SDS011;5574;48.786;10.120;2022-08-01T11:20:18;2.53;;;2.33;;
11042;SDS011;5574;48.786;10.120;2022-08-01T11:26:06;2.60;;;2.40;;
11042;SDS011;5574;48.786;10.120;2022-08-01T11:28:37;3.85;;;2.58;;
11042;SDS011;5574;48.786;10.120;2022-08-01T11:33:51;2.20;;;2.10;;
11042;SDS011;5574;48.786;10.120;2022-08-01T11:36:19;4.53;;;2.40;;
11042;SDS011;5574;48.786;10.120;2022-08-01T11:38:48;2.42;;;2.22;;
11042;SDS011;5574;48.786;10.120;2022-08-01T11:41:37;5.93;;;2.78;;
11042;SDS011;5574;48.786;10.120;2022-08-01T11:44:04;3.00;;;2.75;;
11042;SDS011;5574;48.786;10.120;2022-08-01T11:46:48;2.58;;;2.42;;
11042;SDS011;5574;48.786;10.120;2022-08-01T11:49:27;2.63;;;2.30;;
11042;SDS011;5574;48.786;10.120;2022-08-01T11:51:59;3.85;;;2.85;;
11042;SDS011;5574;48.786;10.120;2022-08-01T11:54:28;3.22;;;2.88;;
11042;SDS011;5574;48.786;10.120;2022-08-01T11:56:57;4.25;;;2.80;;
11042;SDS011;5574;48.786;10.120;2022-08-01T11:59:25;3.13;;;2.90;;
11042;SDS011;5574;48.786;10.120;2022-08-01T12:01:52;2.00;;;1.90;;
11042;SDS011;5574;48.786;10.120;2022-08-01T12:04:19;2.38;;;2.15;;
11042;SDS011;5574;48.786;10.120;2022-08-01T12:06:46;2.40;;;2.25;;
11042;SDS011;5574;48.786;10.120;2022-08-01T12:09:21;2.50;;;2.30;;
11042;SDS011;5574;48.786;10.120;2022-08-01T12:11:48;5.38;;;2.50;;
11042;SDS011;5574;48.786;10.120;2022-08-01T12:14:15;5.15;;;2.42;;
11042;SDS011;5574;48.786;10.120;2022-08-01T12:16:48;2.45;;;2.25;;
11042;SDS011;5574;48.786;10.120;2022-08-01T12:19:20;2.30;;;2.10;;
11042;SDS011;5574;48.786;10.120;2022-08-01T12:22:07;2.20;;;2.10;;
11042;SDS011;5574;48.786;10.120;2022-08-01T12:24:37;2.40;;;2.20;;
11042;SDS011;5574;48.786;10.120;2022-08-01T12:27:05;2.38;;;2.17;;
11042;SDS011;5574;48.786;10.120;2022-08-01T12:29:36;3.17;;;2.17;;
11042;SDS011;5574;48.786;10.120;2022-08-01T12:32:04;3.17;;;2.80;;
11042;SDS011;5574;48.786;10.120;2022-08-01T12:34:47;3.28;;;2.00;;
11042;SDS011;5574;48.786;10.120;2022-08-01T12:37:13;2.88;;;2.38;;
11042;SDS011;5574;48.786;10.120;2022-08-01T12:39:42;2.10;;;2.00;;
11042;SDS011;5574;48.786;10.120;2022-08-01T12:42:10;2.40;;;2.20;;
11042;SDS011;5574;48.786;10.120;2022-08-01T12:44:38;2.67;;;2.47;;
11042;SDS011;5574;48.786;10.120;2022-08-01T12:47:06;2.33;;;2.20;;
11042;SDS011;5574;48.786;10.120;2022-08-01T12:49:34;2.83;;;2.10;;
11042;SDS011;5574;48.786;10.120;2022-08-01T12:52:02;2.72;;;2.38;;
11042;SDS011;5574;48.786;10.120;2022-08-01T12:54:29;3.28;;;2.40;;
11042;SDS011;5574;48.786;10.120;2022-08-01T12:56:57;3.53;;;2.50;;
11042;SDS011;5574;48.786;10.120;2022-08-01T12:59:25;2.47;;;2.33;;
11042;SDS011;5574;48.786;10.120;2022-08-01T13:01:53;2.63;;;2.40;;
11042;SDS011;5574;48.786;10.120;2022-08-01T13:04:20;3.35;;;2.47;;
11042;SDS011;5574;48.786;10.120;2022-08-01T13:06:47;2.78;;;2.20;;
11042;SDS011;5574;48.786;10.120;2022-08-01T13:09:14;2.40;;;2.30;;
11042;SDS011;5574;48.786;10.120;2022-08-01T13:11:41;2.40;;;2.10;;
11042;SDS011;5574;48.786;10.120;2022-08-01T13:14:10;3.47;;;2.75;;
11042;SDS011;5574;48.786;10.120;2022-08-01T13:16:46;2.83;;;2.50;;
11042;SDS011;5574;48.786;10.120;2022-08-01T13:19:13;2.67;;;2.00;;
11042;SDS011;5574;48.786;10.120;2022-08-01T13:21:40;2.55;;;2.20;;
11042;SDS011;5574;48.786;10.120;2022-08-01T13:24:23;2.40;;;2.20;;
11042;SDS011;5574;48.786;10.120;2022-08-01T13:26:53;2.05;;;1.95;;
11042;SDS011;5574;48.786;10.120;2022-08-01T13:29:30;2.45;;;2.00;;
11042;SDS011;5574;48.786;10.120;2022-08-01T13:31:58;1.80;;;1.67;;
11042;SDS011;5574;48.786;10.120;2022-08-01T13:34:31;2.00;;;1.90;;
11042;SDS011;5574;48.786;10.120;2022-08-01T13:36:59;3.85;;;2.17;;
11042;SDS011;5574;48.786;10.120;2022-08-01T13:39:26;2.00;;;1.90;;
11042;SDS011;5574;48.786;10.120;2022-08-01T13:42:09;2.40;;;2.20;;
11042;SDS011;5574;48.786;10.120;2022-08-01T13:44:38;2.20;;;2.00;;
11042;SDS011;5574;48.786;10.120;2022-08-01T13:47:05;2.13;;;2.03;;
11042;SDS011;5574;48.786;10.120;2022-08-01T13:49:32;2.00;;;1.90;;
11042;SDS011;5574;48.786;10.120;2022-08-01T13:52:00;3.15;;;2.30;;
11042;SDS011;5574;48.786;10.120;2022-08-01T13:54:26;2.20;;;2.10;;
11042;SDS011;5574;48.786;10.120;2022-08-01T13:56:53;4.22;;;3.00;;
11042;SDS011;5574;48.786;10.120;2022-08-01T13:59:20;2.95;;;2.15;;
11042;SDS011;5574;48.786;10.120;2022-08-01T14:01:48;2.53;;;2.33;;
11042;SDS011;5574;48.786;10.120;2022-08-01T14:04:15;2.45;;;2.25;;
11042;SDS011;5574;48.786;10.120;2022-08-01T14:06:42;2.53;;;2.30;;
11042;SDS011;5574;48.786;10.120;2022-08-01T14:09:08;2.40;;;2.20;;
11042;SDS011;5574;48.786;10.120;2022-08-01T14:11:35;3.60;;;3.30;;
11042;SDS011;5574;48.786;10.120;2022-08-01T14:14:02;3.10;;;1.90;;
11042;SDS011;5574;48.786;10.120;2022-08-01T14:16:29;1.90;;;1.80;;
11042;SDS011;5574;48.786;10.120;2022-08-01T14:18:57;2.03;;;1.92;;
11042;SDS011;5574;48.786;10.120;2022-08-01T14:21:23;1.90;;;1.80;;
11042;SDS011;5574;48.786;10.120;2022-08-01T14:23:50;2.97;;;1.70;;
11042;SDS011;5574;48.786;10.120;2022-08-01T14:26:17;1.65;;;1.55;;
11042;SDS011;5574;48.786;10.120;2022-08-01T14:28:44;1.85;;;1.75;;
11042;SDS011;5574;48.786;10.120;2022-08-01T14:31:10;3.22;;;1.50;;
11042;SDS011;5574;48.786;10.120;2022-08-01T14:33:37;1.58;;;1.48;;
11042;SDS011;5574;48.786;10.120;2022-08-01T14:36:05;1.60;;;1.50;;
11042;SDS011;5574;48.786;10.120;2022-08-01T14:38:32;1.80;;;1.70;;
11042;SDS011;5574;48.786;10.120;2022-08-01T14:40:59;1.80;;;1.50;;
11042;SDS011;5574;48.786;10.120;2022-08-01T14:43:27;1.63;;;1.52;;
11042;SDS011;5574;48.786;10.120;2022-08-01T14:45:56;2.35;;;1.65;;
11042;SDS011;5574;48.786;10.120;2022-08-01T14:48:23;1.52;;;1.42;;
11042;SDS011;5574;48.786;10.120;2022-08-01T14:50:49;1.52;;;1.42;;
11042;SDS011;5574;48.786;10.120;2022-08-01T14:53:17;2.22;;;1.60;;
11042;SDS011;5574;48.786;10.120;2022-08-01T14:55:44;1.75;;;1.52;;
11042;SDS011;5574;48.786;10.120;2022-08-01T14:58:11;3.15;;;1.48;;
11042;SDS011;5574;48.786;10.120;2022-08-01T15:00:37;1.65;;;1.55;;
11042;SDS011;5574;48.786;10.120;2022-08-01T15:03:04;1.63;;;1.52;;
11042;SDS011;5574;48.786;10.120;2022-08-01T15:05:31;1.58;;;1.45;;